sensor_id;sensor_type;location;lat;lon;timestamp;P1;durP1;ratioP1;P2;durP2;ratioP2
15748;SDS011;7976;52.526;13.326;2023-02-24T00:01:51;48.95;;;15.90;;
15748;SDS011;7976;52.526;13.326;2023-02-24T00:04:25;55.13;;;14.95;;
15748;SDS011;7976;52.526;13.326;2023-02-24T00:06:54;50.25;;;15.15;;
15748;SDS011;7976;52.526;13.326;2023-02-24T00:09:21;52.78;;;14.02;;
15748;SDS011;7976;52.526;13.326;2023-02-24T00:11:53;39.38;;;13.13;;
15748;SDS011;7976;52.526;13.326;2023-02-24T00:14:23;46.45;;;13.70;;
15748;SDS011;7976;52.526;13.326;2023-02-24T00:16:55;44.58;;;13.93;;
15748;SDS011;7976;52.526;13.326;2023-02-24T00:19:23;41.63;;;12.55;;
15748;SDS011;7976;52.526;13.326;2023-02-24T00:21:56;39.35;;;12.93;;
15748;SDS011;7976;52.526;13.326;2023-02-24T00:24:25;45.22;;;13.63;;
15748;SDS011;7976;52.526;13.326;2023-02-24T00:26:54;41.40;;;14.43;;
15748;SDS011;7976;52.526;13.326;2023-02-24T00:29:23;38.88;;;12.77;;
15748;SDS011;7976;52.526;13.326;2023-02-24T00:31:51;35.00;;;11.23;;
15748;SDS011;7976;52.526;13.326;2023-02-24T00:34:23;36.35;;;12.02;;
15748;SDS011;7976;52.526;13.326;2023-02-24T00:36:50;34.58;;;11.43;;
15748;SDS011;7976;52.526;13.326;2023-02-24T00:39:16;42.67;;;10.75;;
15748;SDS011;7976;52.526;13.326;2023-02-24T00:41:56;38.70;;;11.88;;
15748;SDS011;7976;52.526;13.326;2023-02-24T00:44:28;32.63;;;9.95;;
15748;SDS011;7976;52.526;13.326;2023-02-24T00:46:58;30.45;;;8.32;;
15748;SDS011;7976;52.526;13.326;2023-02-24T00:49:26;26.27;;;8.77;;
15748;SDS011;7976;52.526;13.326;2023-02-24T00:51:55;19.60;;;6.90;;
15748;SDS011;7976;52.526;13.326;2023-02-24T00:54:22;21.65;;;6.07;;
15748;SDS011;7976;52.526;13.326;2023-02-24T00:56:52;22.17;;;5.78;;
15748;SDS011;7976;52.526;13.326;2023-02-24T00:59:22;19.75;;;5.57;;
15748;SDS011;7976;52.526;13.326;2023-02-24T01:01:50;16.45;;;5.20;;
15748;SDS011;7976;52.526;13.326;2023-02-24T01:04:18;18.45;;;6.45;;
15748;SDS011;7976;52.526;13.326;2023-02-24T01:06:48;23.48;;;6.03;;
15748;SDS011;7976;52.526;13.326;2023-02-24T01:09:24;23.92;;;6.25;;
15748;SDS011;7976;52.526;13.326;2023-02-24T01:11:56;20.40;;;5.45;;
15748;SDS011;7976;52.526;13.326;2023-02-24T01:14:42;21.30;;;5.20;;
15748;SDS011;7976;52.526;13.326;2023-02-24T01:17:12;24.05;;;7.95;;
15748;SDS011;7976;52.526;13.326;2023-02-24T01:19:41;26.17;;;5.85;;
15748;SDS011;7976;52.526;13.326;2023-02-24T01:22:11;15.88;;;4.32;;
15748;SDS011;7976;52.526;13.326;2023-02-24T01:24:41;20.40;;;5.05;;
15748;SDS011;7976;52.526;13.326;2023-02-24T01:27:10;17.27;;;3.75;;
15748;SDS011;7976;52.526;13.326;2023-02-24T01:29:41;21.08;;;4.47;;
15748;SDS011;7976;52.526;13.326;2023-02-24T01:32:11;18.73;;;3.50;;
15748;SDS011;7976;52.526;13.326;2023-02-24T01:34:42;13.48;;;2.88;;
15748;SDS011;7976;52.526;13.326;2023-02-24T01:37:09;22.38;;;6.15;;
15748;SDS011;7976;52.526;13.326;2023-02-24T01:39:40;18.63;;;3.58;;
15748;SDS011;7976;52.526;13.326;2023-02-24T01:42:09;24.73;;;5.75;;
15748;SDS011;7976;52.526;13.326;2023-02-24T01:47:49;19.30;;;3.10;;
15748;SDS011;7976;52.526;13.326;2023-02-24T01:50:19;16.60;;;2.97;;
15748;SDS011;7976;52.526;13.326;2023-02-24T01:52:50;17.60;;;3.30;;
15748;SDS011;7976;52.526;13.326;2023-02-24T01:55:23;21.33;;;4.45;;
15748;SDS011;7976;52.526;13.326;2023-02-24T01:57:57;18.25;;;3.55;;
15748;SDS011;7976;52.526;13.326;2023-02-24T02:00:31;19.40;;;3.30;;
15748;SDS011;7976;52.526;13.326;2023-02-24T02:03:10;19.35;;;3.53;;
15748;SDS011;7976;52.526;13.326;2023-02-24T02:05:48;19.08;;;3.70;;
15748;SDS011;7976;52.526;13.326;2023-02-24T02:08:17;15.68;;;2.97;;
15748;SDS011;7976;52.526;13.326;2023-02-24T02:10:47;20.25;;;3.42;;
15748;SDS011;7976;52.526;13.326;2023-02-24T02:13:24;26.33;;;4.50;;
15748;SDS011;7976;52.526;13.326;2023-02-24T02:15:56;13.95;;;2.60;;
15748;SDS011;7976;52.526;13.326;2023-02-24T02:18:41;25.65;;;4.68;;
15748;SDS011;7976;52.526;13.326;2023-02-24T02:21:30;21.33;;;3.83;;
15748;SDS011;7976;52.526;13.326;2023-02-24T02:24:32;15.98;;;3.53;;
15748;SDS011;7976;52.526;13.326;2023-02-24T02:27:29;13.38;;;3.05;;
15748;SDS011;7976;52.526;13.326;2023-02-24T02:33:46;17.40;;;4.40;;
15748;SDS011;7976;52.526;13.326;2023-02-24T02:36:47;17.65;;;2.92;;
15748;SDS011;7976;52.526;13.326;2023-02-24T02:39:28;14.93;;;2.67;;
15748;SDS011;7976;52.526;13.326;2023-02-24T02:42:11;10.98;;;1.80;;
15748;SDS011;7976;52.526;13.326;2023-02-24T02:44:56;15.98;;;2.65;;
15748;SDS011;7976;52.526;13.326;2023-02-24T02:47:33;10.52;;;2.10;;
15748;SDS011;7976;52.526;13.326;2023-02-24T02:50:09;10.30;;;1.92;;
15748;SDS011;7976;52.526;13.326;2023-02-24T02:52:46;11.93;;;2.10;;
15748;SDS011;7976;52.526;13.326;2023-02-24T02:55:23;14.73;;;2.35;;
15748;SDS011;7976;52.526;13.326;2023-02-24T02:57:59;11.63;;;2.17;;
15748;SDS011;7976;52.526;13.326;2023-02-24T03:00:34;10.38;;;1.77;;
15748;SDS011;7976;52.526;13.326;2023-02-24T03:03:08;12.20;;;1.90;;
15748;SDS011;7976;52.526;13.326;2023-02-24T03:05:45;15.32;;;1.88;;
15748;SDS011;7976;52.526;13.326;2023-02-24T03:08:20;12.98;;;2.00;;
15748;SDS011;7976;52.526;13.326;2023-02-24T03:10:53;20.75;;;2.30;;
15748;SDS011;7976;52.526;13.326;2023-02-24T03:13:26;13.95;;;2.20;;
15748;SDS011;7976;52.526;13.326;2023-02-24T03:16:00;13.93;;;2.25;;
15748;SDS011;7976;52.526;13.326;2023-02-24T03:18:31;10.75;;;2.08;;
15748;SDS011;7976;52.526;13.326;2023-02-24T03:21:07;19.75;;;2.55;;
15748;SDS011;7976;52.526;13.326;2023-02-24T03:23:39;11.77;;;1.67;;
15748;SDS011;7976;52.526;13.326;2023-02-24T03:26:12;13.48;;;2.67;;
15748;SDS011;7976;52.526;13.326;2023-02-24T03:28:47;11.25;;;2.92;;
15748;SDS011;7976;52.526;13.326;2023-02-24T03:31:26;15.60;;;3.00;;
15748;SDS011;7976;52.526;13.326;2023-02-24T03:34:04;11.10;;;2.03;;
15748;SDS011;7976;52.526;13.326;2023-02-24T03:36:39;15.07;;;2.13;;
15748;SDS011;7976;52.526;13.326;2023-02-24T03:39:07;13.50;;;2.20;;
15748;SDS011;7976;52.526;13.326;2023-02-24T03:41:46;13.02;;;2.38;;
15748;SDS011;7976;52.526;13.326;2023-02-24T03:44:22;14.55;;;2.35;;
15748;SDS011;7976;52.526;13.326;2023-02-24T03:46:49;18.38;;;3.90;;
15748;SDS011;7976;52.526;13.326;2023-02-24T03:49:20;12.05;;;1.80;;
15748;SDS011;7976;52.526;13.326;2023-02-24T03:51:53;16.17;;;2.55;;
15748;SDS011;7976;52.526;13.326;2023-02-24T03:54:45;10.00;;;1.90;;
15748;SDS011;7976;52.526;13.326;2023-02-24T03:57:33;7.85;;;1.80;;
15748;SDS011;7976;52.526;13.326;2023-02-24T04:00:30;16.05;;;3.08;;
15748;SDS011;7976;52.526;13.326;2023-02-24T04:03:08;8.70;;;2.20;;
15748;SDS011;7976;52.526;13.326;2023-02-24T04:06:06;18.60;;;3.05;;
15748;SDS011;7976;52.526;13.326;2023-02-24T04:08:40;11.45;;;2.50;;
15748;SDS011;7976;52.526;13.326;2023-02-24T04:11:18;14.05;;;2.30;;
15748;SDS011;7976;52.526;13.326;2023-02-24T04:13:54;11.40;;;2.47;;
15748;SDS011;7976;52.526;13.326;2023-02-24T04:16:32;16.08;;;2.67;;
15748;SDS011;7976;52.526;13.326;2023-02-24T04:19:08;15.18;;;2.38;;
15748;SDS011;7976;52.526;13.326;2023-02-24T04:21:41;14.10;;;2.70;;
15748;SDS011;7976;52.526;13.326;2023-02-24T04:24:20;14.73;;;2.58;;
15748;SDS011;7976;52.526;13.326;2023-02-24T04:26:52;11.15;;;2.53;;
15748;SDS011;7976;52.526;13.326;2023-02-24T04:29:23;15.32;;;2.92;;
15748;SDS011;7976;52.526;13.326;2023-02-24T04:32:00;20.65;;;3.35;;
15748;SDS011;7976;52.526;13.326;2023-02-24T04:34:32;11.88;;;2.55;;
15748;SDS011;7976;52.526;13.326;2023-02-24T04:37:00;15.80;;;2.90;;
15748;SDS011;7976;52.526;13.326;2023-02-24T04:39:30;9.73;;;2.47;;
15748;SDS011;7976;52.526;13.326;2023-02-24T04:41:59;15.70;;;2.45;;
15748;SDS011;7976;52.526;13.326;2023-02-24T04:44:26;10.20;;;2.42;;
15748;SDS011;7976;52.526;13.326;2023-02-24T04:46:53;12.98;;;2.47;;
15748;SDS011;7976;52.526;13.326;2023-02-24T04:49:21;8.55;;;2.20;;
15748;SDS011;7976;52.526;13.326;2023-02-24T04:51:47;13.57;;;2.72;;
15748;SDS011;7976;52.526;13.326;2023-02-24T04:54:16;14.50;;;3.35;;
15748;SDS011;7976;52.526;13.326;2023-02-24T04:56:48;12.95;;;2.35;;
15748;SDS011;7976;52.526;13.326;2023-02-24T04:59:17;10.38;;;2.60;;
15748;SDS011;7976;52.526;13.326;2023-02-24T05:01:44;11.35;;;2.10;;
15748;SDS011;7976;52.526;13.326;2023-02-24T05:04:16;10.07;;;2.38;;
15748;SDS011;7976;52.526;13.326;2023-02-24T05:06:43;12.07;;;2.97;;
15748;SDS011;7976;52.526;13.326;2023-02-24T05:09:11;8.40;;;1.90;;
15748;SDS011;7976;52.526;13.326;2023-02-24T05:11:42;8.43;;;2.13;;
15748;SDS011;7976;52.526;13.326;2023-02-24T05:14:14;13.32;;;2.60;;
15748;SDS011;7976;52.526;13.326;2023-02-24T05:16:45;7.05;;;2.00;;
15748;SDS011;7976;52.526;13.326;2023-02-24T05:19:15;11.90;;;1.80;;
15748;SDS011;7976;52.526;13.326;2023-02-24T05:22:02;8.00;;;2.00;;
15748;SDS011;7976;52.526;13.326;2023-02-24T05:24:31;9.02;;;1.88;;
15748;SDS011;7976;52.526;13.326;2023-02-24T05:27:00;12.18;;;2.17;;
15748;SDS011;7976;52.526;13.326;2023-02-24T05:29:28;9.75;;;1.80;;
15748;SDS011;7976;52.526;13.326;2023-02-24T05:31:58;8.15;;;1.65;;
15748;SDS011;7976;52.526;13.326;2023-02-24T05:34:27;12.13;;;2.10;;
15748;SDS011;7976;52.526;13.326;2023-02-24T05:36:56;12.77;;;2.20;;
15748;SDS011;7976;52.526;13.326;2023-02-24T05:39:28;12.45;;;1.92;;
15748;SDS011;7976;52.526;13.326;2023-02-24T05:41:55;5.97;;;1.60;;
15748;SDS011;7976;52.526;13.326;2023-02-24T05:44:24;7.15;;;1.73;;
15748;SDS011;7976;52.526;13.326;2023-02-24T05:46:52;15.73;;;1.85;;
15748;SDS011;7976;52.526;13.326;2023-02-24T05:49:23;11.50;;;1.90;;
15748;SDS011;7976;52.526;13.326;2023-02-24T05:51:58;7.22;;;1.50;;
15748;SDS011;7976;52.526;13.326;2023-02-24T05:54:32;10.82;;;1.65;;
15748;SDS011;7976;52.526;13.326;2023-02-24T05:57:02;7.63;;;1.48;;
15748;SDS011;7976;52.526;13.326;2023-02-24T05:59:34;10.65;;;1.73;;
15748;SDS011;7976;52.526;13.326;2023-02-24T06:02:03;8.48;;;1.70;;
15748;SDS011;7976;52.526;13.326;2023-02-24T06:04:33;8.30;;;1.60;;
15748;SDS011;7976;52.526;13.326;2023-02-24T06:07:05;9.98;;;1.80;;
15748;SDS011;7976;52.526;13.326;2023-02-24T06:09:38;10.30;;;1.63;;
15748;SDS011;7976;52.526;13.326;2023-02-24T06:12:07;12.85;;;1.70;;
15748;SDS011;7976;52.526;13.326;2023-02-24T06:14:53;10.77;;;1.40;;
15748;SDS011;7976;52.526;13.326;2023-02-24T06:17:22;14.65;;;2.20;;
15748;SDS011;7976;52.526;13.326;2023-02-24T06:19:50;9.52;;;1.40;;
15748;SDS011;7976;52.526;13.326;2023-02-24T06:22:20;9.77;;;1.63;;
15748;SDS011;7976;52.526;13.326;2023-02-24T06:24:51;13.73;;;2.05;;
15748;SDS011;7976;52.526;13.326;2023-02-24T06:27:21;8.48;;;1.67;;
15748;SDS011;7976;52.526;13.326;2023-02-24T06:29:49;10.93;;;1.02;;
15748;SDS011;7976;52.526;13.326;2023-02-24T06:32:19;8.63;;;1.48;;
15748;SDS011;7976;52.526;13.326;2023-02-24T06:34:50;10.65;;;1.45;;
15748;SDS011;7976;52.526;13.326;2023-02-24T06:37:19;12.63;;;1.30;;
15748;SDS011;7976;52.526;13.326;2023-02-24T06:39:46;7.63;;;1.50;;
15748;SDS011;7976;52.526;13.326;2023-02-24T06:42:13;8.13;;;1.45;;
15748;SDS011;7976;52.526;13.326;2023-02-24T06:44:40;10.88;;;1.65;;
15748;SDS011;7976;52.526;13.326;2023-02-24T06:47:09;11.68;;;2.17;;
15748;SDS011;7976;52.526;13.326;2023-02-24T06:49:41;15.77;;;1.88;;
15748;SDS011;7976;52.526;13.326;2023-02-24T06:52:10;11.13;;;2.20;;
15748;SDS011;7976;52.526;13.326;2023-02-24T06:54:42;11.90;;;2.30;;
15748;SDS011;7976;52.526;13.326;2023-02-24T06:57:11;10.52;;;2.15;;
15748;SDS011;7976;52.526;13.326;2023-02-24T06:59:38;9.82;;;1.83;;
15748;SDS011;7976;52.526;13.326;2023-02-24T07:02:08;6.65;;;1.65;;
15748;SDS011;7976;52.526;13.326;2023-02-24T07:04:36;8.80;;;1.73;;
15748;SDS011;7976;52.526;13.326;2023-02-24T07:07:09;10.50;;;1.98;;
15748;SDS011;7976;52.526;13.326;2023-02-24T07:09:38;10.23;;;1.70;;
15748;SDS011;7976;52.526;13.326;2023-02-24T07:12:08;9.32;;;1.70;;
15748;SDS011;7976;52.526;13.326;2023-02-24T07:14:36;11.43;;;1.65;;
15748;SDS011;7976;52.526;13.326;2023-02-24T07:17:04;7.78;;;1.75;;
15748;SDS011;7976;52.526;13.326;2023-02-24T07:19:32;9.23;;;1.60;;
15748;SDS011;7976;52.526;13.326;2023-02-24T07:22:00;9.48;;;1.70;;
15748;SDS011;7976;52.526;13.326;2023-02-24T07:24:30;6.18;;;1.67;;
15748;SDS011;7976;52.526;13.326;2023-02-24T07:27:00;11.63;;;1.52;;
15748;SDS011;7976;52.526;13.326;2023-02-24T07:29:31;11.80;;;2.10;;
15748;SDS011;7976;52.526;13.326;2023-02-24T07:31:59;9.32;;;1.70;;
15748;SDS011;7976;52.526;13.326;2023-02-24T07:34:29;8.52;;;1.50;;
15748;SDS011;7976;52.526;13.326;2023-02-24T07:36:58;6.60;;;1.65;;
15748;SDS011;7976;52.526;13.326;2023-02-24T07:39:33;6.15;;;1.58;;
15748;SDS011;7976;52.526;13.326;2023-02-24T07:42:01;7.25;;;1.83;;
15748;SDS011;7976;52.526;13.326;2023-02-24T07:44:40;7.28;;;1.83;;
15748;SDS011;7976;52.526;13.326;2023-02-24T07:47:10;7.18;;;1.70;;
15748;SDS011;7976;52.526;13.326;2023-02-24T07:49:37;6.55;;;1.63;;
15748;SDS011;7976;52.526;13.326;2023-02-24T07:52:05;9.40;;;1.70;;
15748;SDS011;7976;52.526;13.326;2023-02-24T07:54:33;9.25;;;1.65;;
15748;SDS011;7976;52.526;13.326;2023-02-24T07:57:00;8.13;;;1.65;;
15748;SDS011;7976;52.526;13.326;2023-02-24T07:59:28;9.45;;;2.15;;
15748;SDS011;7976;52.526;13.326;2023-02-24T08:01:57;9.63;;;2.10;;
15748;SDS011;7976;52.526;13.326;2023-02-24T08:04:25;11.65;;;2.47;;
15748;SDS011;7976;52.526;13.326;2023-02-24T08:06:56;9.40;;;2.13;;
15748;SDS011;7976;52.526;13.326;2023-02-24T08:09:28;8.30;;;1.95;;
15748;SDS011;7976;52.526;13.326;2023-02-24T08:12:34;8.20;;;1.55;;
15748;SDS011;7976;52.526;13.326;2023-02-24T08:15:07;7.85;;;1.90;;
15748;SDS011;7976;52.526;13.326;2023-02-24T08:17:42;10.57;;;2.17;;
15748;SDS011;7976;52.526;13.326;2023-02-24T08:20:11;9.95;;;2.05;;
15748;SDS011;7976;52.526;13.326;2023-02-24T08:22:49;8.90;;;1.98;;
15748;SDS011;7976;52.526;13.326;2023-02-24T08:25:19;8.95;;;2.53;;
15748;SDS011;7976;52.526;13.326;2023-02-24T08:27:50;9.63;;;1.92;;
15748;SDS011;7976;52.526;13.326;2023-02-24T08:30:22;12.73;;;2.83;;
15748;SDS011;7976;52.526;13.326;2023-02-24T08:32:54;9.82;;;2.05;;
15748;SDS011;7976;52.526;13.326;2023-02-24T08:35:24;10.32;;;1.88;;
15748;SDS011;7976;52.526;13.326;2023-02-24T08:37:57;10.05;;;1.90;;
15748;SDS011;7976;52.526;13.326;2023-02-24T08:40:29;11.48;;;2.28;;
15748;SDS011;7976;52.526;13.326;2023-02-24T08:43:18;10.73;;;2.17;;
15748;SDS011;7976;52.526;13.326;2023-02-24T08:45:58;10.50;;;2.13;;
15748;SDS011;7976;52.526;13.326;2023-02-24T08:48:37;10.68;;;2.00;;
15748;SDS011;7976;52.526;13.326;2023-02-24T08:51:08;13.45;;;2.40;;
15748;SDS011;7976;52.526;13.326;2023-02-24T08:53:40;11.63;;;2.45;;
15748;SDS011;7976;52.526;13.326;2023-02-24T08:56:08;11.20;;;2.45;;
15748;SDS011;7976;52.526;13.326;2023-02-24T08:58:40;8.90;;;2.10;;
15748;SDS011;7976;52.526;13.326;2023-02-24T09:01:13;12.77;;;2.03;;
15748;SDS011;7976;52.526;13.326;2023-02-24T09:03:44;13.90;;;2.38;;
15748;SDS011;7976;52.526;13.326;2023-02-24T09:06:13;8.77;;;2.30;;
15748;SDS011;7976;52.526;13.326;2023-02-24T09:08:49;10.02;;;2.20;;
15748;SDS011;7976;52.526;13.326;2023-02-24T09:11:41;9.13;;;2.20;;
15748;SDS011;7976;52.526;13.326;2023-02-24T09:14:11;11.07;;;2.15;;
15748;SDS011;7976;52.526;13.326;2023-02-24T09:16:42;8.82;;;2.05;;
15748;SDS011;7976;52.526;13.326;2023-02-24T09:19:27;9.27;;;1.90;;
15748;SDS011;7976;52.526;13.326;2023-02-24T09:22:26;10.30;;;2.20;;
15748;SDS011;7976;52.526;13.326;2023-02-24T09:25:06;15.65;;;2.70;;
15748;SDS011;7976;52.526;13.326;2023-02-24T09:27:45;10.20;;;2.13;;
15748;SDS011;7976;52.526;13.326;2023-02-24T09:30:18;10.38;;;2.05;;
15748;SDS011;7976;52.526;13.326;2023-02-24T09:33:09;8.15;;;2.20;;
15748;SDS011;7976;52.526;13.326;2023-02-24T09:35:51;10.52;;;2.03;;
15748;SDS011;7976;52.526;13.326;2023-02-24T09:38:34;11.02;;;3.63;;
15748;SDS011;7976;52.526;13.326;2023-02-24T09:41:35;9.15;;;1.85;;
15748;SDS011;7976;52.526;13.326;2023-02-24T09:44:26;5.90;;;1.92;;
15748;SDS011;7976;52.526;13.326;2023-02-24T09:47:00;6.82;;;1.70;;
15748;SDS011;7976;52.526;13.326;2023-02-24T09:49:41;11.40;;;2.05;;
15748;SDS011;7976;52.526;13.326;2023-02-24T09:52:15;9.30;;;2.20;;
15748;SDS011;7976;52.526;13.326;2023-02-24T09:54:44;11.00;;;1.98;;
15748;SDS011;7976;52.526;13.326;2023-02-24T09:57:37;11.00;;;1.90;;
15748;SDS011;7976;52.526;13.326;2023-02-24T10:00:40;8.48;;;2.38;;
15748;SDS011;7976;52.526;13.326;2023-02-24T10:03:20;9.52;;;2.08;;
15748;SDS011;7976;52.526;13.326;2023-02-24T10:06:10;9.43;;;1.98;;
15748;SDS011;7976;52.526;13.326;2023-02-24T10:08:46;8.20;;;2.15;;
15748;SDS011;7976;52.526;13.326;2023-02-24T10:11:20;10.73;;;2.60;;
15748;SDS011;7976;52.526;13.326;2023-02-24T10:13:58;9.55;;;2.15;;
15748;SDS011;7976;52.526;13.326;2023-02-24T10:16:30;9.25;;;1.73;;
15748;SDS011;7976;52.526;13.326;2023-02-24T10:19:11;8.30;;;2.65;;
15748;SDS011;7976;52.526;13.326;2023-02-24T10:21:51;11.57;;;2.10;;
15748;SDS011;7976;52.526;13.326;2023-02-24T10:24:28;10.73;;;1.80;;
15748;SDS011;7976;52.526;13.326;2023-02-24T10:27:05;8.05;;;1.50;;
15748;SDS011;7976;52.526;13.326;2023-02-24T10:29:45;9.43;;;1.55;;
15748;SDS011;7976;52.526;13.326;2023-02-24T10:32:30;9.93;;;1.65;;
15748;SDS011;7976;52.526;13.326;2023-02-24T10:35:12;10.00;;;1.70;;
15748;SDS011;7976;52.526;13.326;2023-02-24T10:37:41;8.27;;;1.50;;
15748;SDS011;7976;52.526;13.326;2023-02-24T10:40:09;8.38;;;1.65;;
15748;SDS011;7976;52.526;13.326;2023-02-24T10:42:48;7.80;;;1.90;;
15748;SDS011;7976;52.526;13.326;2023-02-24T10:45:21;6.13;;;1.52;;
15748;SDS011;7976;52.526;13.326;2023-02-24T10:47:52;6.38;;;1.20;;
15748;SDS011;7976;52.526;13.326;2023-02-24T10:50:22;7.85;;;1.80;;
15748;SDS011;7976;52.526;13.326;2023-02-24T10:53:00;6.80;;;1.77;;
15748;SDS011;7976;52.526;13.326;2023-02-24T10:55:50;7.95;;;1.55;;
15748;SDS011;7976;52.526;13.326;2023-02-24T10:58:38;9.38;;;1.48;;
15748;SDS011;7976;52.526;13.326;2023-02-24T11:01:13;7.95;;;1.50;;
15748;SDS011;7976;52.526;13.326;2023-02-24T11:04:09;8.38;;;1.67;;
15748;SDS011;7976;52.526;13.326;2023-02-24T11:07:10;10.48;;;1.60;;
15748;SDS011;7976;52.526;13.326;2023-02-24T11:09:59;7.50;;;1.92;;
15748;SDS011;7976;52.526;13.326;2023-02-24T11:12:36;12.57;;;1.65;;
15748;SDS011;7976;52.526;13.326;2023-02-24T11:15:28;7.50;;;1.65;;
15748;SDS011;7976;52.526;13.326;2023-02-24T11:18:20;10.77;;;1.75;;
15748;SDS011;7976;52.526;13.326;2023-02-24T11:20:51;8.27;;;1.98;;
15748;SDS011;7976;52.526;13.326;2023-02-24T11:23:23;10.52;;;1.92;;
15748;SDS011;7976;52.526;13.326;2023-02-24T11:25:57;9.00;;;1.75;;
15748;SDS011;7976;52.526;13.326;2023-02-24T11:28:32;5.70;;;2.00;;
15748;SDS011;7976;52.526;13.326;2023-02-24T11:31:27;11.13;;;1.80;;
15748;SDS011;7976;52.526;13.326;2023-02-24T11:34:17;9.75;;;1.90;;
15748;SDS011;7976;52.526;13.326;2023-02-24T11:36:56;11.43;;;1.80;;
15748;SDS011;7976;52.526;13.326;2023-02-24T11:39:42;9.05;;;1.80;;
15748;SDS011;7976;52.526;13.326;2023-02-24T11:42:18;7.47;;;1.95;;
15748;SDS011;7976;52.526;13.326;2023-02-24T11:44:52;6.70;;;1.95;;
15748;SDS011;7976;52.526;13.326;2023-02-24T11:47:27;6.32;;;1.73;;
15748;SDS011;7976;52.526;13.326;2023-02-24T11:50:05;5.55;;;1.63;;
15748;SDS011;7976;52.526;13.326;2023-02-24T11:52:51;10.50;;;1.70;;
15748;SDS011;7976;52.526;13.326;2023-02-24T11:55:23;5.60;;;1.75;;
15748;SDS011;7976;52.526;13.326;2023-02-24T11:57:59;4.75;;;1.65;;
15748;SDS011;7976;52.526;13.326;2023-02-24T12:00:31;7.68;;;2.08;;
15748;SDS011;7976;52.526;13.326;2023-02-24T12:03:05;6.03;;;1.98;;
15748;SDS011;7976;52.526;13.326;2023-02-24T12:05:45;8.27;;;2.05;;
15748;SDS011;7976;52.526;13.326;2023-02-24T12:08:21;8.00;;;1.98;;
15748;SDS011;7976;52.526;13.326;2023-02-24T12:10:57;8.95;;;1.70;;
15748;SDS011;7976;52.526;13.326;2023-02-24T12:13:35;9.50;;;2.35;;
15748;SDS011;7976;52.526;13.326;2023-02-24T12:16:09;9.40;;;2.30;;
15748;SDS011;7976;52.526;13.326;2023-02-24T12:18:43;11.10;;;2.03;;
15748;SDS011;7976;52.526;13.326;2023-02-24T12:21:21;8.00;;;1.90;;
15748;SDS011;7976;52.526;13.326;2023-02-24T12:23:55;7.25;;;1.60;;
15748;SDS011;7976;52.526;13.326;2023-02-24T12:26:26;10.07;;;1.73;;
15748;SDS011;7976;52.526;13.326;2023-02-24T12:32:13;8.13;;;2.30;;
15748;SDS011;7976;52.526;13.326;2023-02-24T12:34:54;6.35;;;2.00;;
15748;SDS011;7976;52.526;13.326;2023-02-24T12:37:48;8.23;;;2.70;;
15748;SDS011;7976;52.526;13.326;2023-02-24T12:40:31;10.57;;;2.28;;
15748;SDS011;7976;52.526;13.326;2023-02-24T12:43:12;7.45;;;2.03;;
15748;SDS011;7976;52.526;13.326;2023-02-24T12:46:00;8.77;;;2.08;;
15748;SDS011;7976;52.526;13.326;2023-02-24T12:48:44;7.53;;;1.63;;
15748;SDS011;7976;52.526;13.326;2023-02-24T12:51:46;6.72;;;2.00;;
15748;SDS011;7976;52.526;13.326;2023-02-24T12:54:30;5.93;;;1.83;;
15748;SDS011;7976;52.526;13.326;2023-02-24T12:57:07;5.05;;;1.45;;
15748;SDS011;7976;52.526;13.326;2023-02-24T12:59:46;6.80;;;1.90;;
15748;SDS011;7976;52.526;13.326;2023-02-24T13:02:18;6.57;;;1.60;;
15748;SDS011;7976;52.526;13.326;2023-02-24T13:05:01;5.70;;;1.65;;
15748;SDS011;7976;52.526;13.326;2023-02-24T13:07:47;5.90;;;1.45;;
15748;SDS011;7976;52.526;13.326;2023-02-24T13:10:36;10.52;;;1.55;;
15748;SDS011;7976;52.526;13.326;2023-02-24T13:13:14;5.82;;;1.63;;
15748;SDS011;7976;52.526;13.326;2023-02-24T13:15:51;4.47;;;1.35;;
15748;SDS011;7976;52.526;13.326;2023-02-24T13:18:23;5.22;;;1.50;;
15748;SDS011;7976;52.526;13.326;2023-02-24T13:21:00;7.30;;;1.92;;
15748;SDS011;7976;52.526;13.326;2023-02-24T13:23:31;5.13;;;1.52;;
15748;SDS011;7976;52.526;13.326;2023-02-24T13:26:01;5.78;;;1.70;;
15748;SDS011;7976;52.526;13.326;2023-02-24T13:28:29;7.15;;;1.90;;
15748;SDS011;7976;52.526;13.326;2023-02-24T13:31:00;8.38;;;2.00;;
15748;SDS011;7976;52.526;13.326;2023-02-24T13:33:31;7.38;;;2.10;;
15748;SDS011;7976;52.526;13.326;2023-02-24T13:36:12;9.13;;;2.22;;
15748;SDS011;7976;52.526;13.326;2023-02-24T13:38:46;6.90;;;1.92;;
15748;SDS011;7976;52.526;13.326;2023-02-24T13:41:23;8.52;;;2.00;;
15748;SDS011;7976;52.526;13.326;2023-02-24T13:44:22;7.88;;;2.17;;
15748;SDS011;7976;52.526;13.326;2023-02-24T13:46:59;11.32;;;2.13;;
15748;SDS011;7976;52.526;13.326;2023-02-24T13:49:58;7.30;;;1.70;;
15748;SDS011;7976;52.526;13.326;2023-02-24T13:52:46;6.22;;;1.88;;
15748;SDS011;7976;52.526;13.326;2023-02-24T13:55:36;6.03;;;1.75;;
15748;SDS011;7976;52.526;13.326;2023-02-24T13:58:19;5.40;;;1.98;;
15748;SDS011;7976;52.526;13.326;2023-02-24T14:01:11;10.57;;;2.38;;
15748;SDS011;7976;52.526;13.326;2023-02-24T14:03:41;6.65;;;2.17;;
15748;SDS011;7976;52.526;13.326;2023-02-24T14:06:25;6.95;;;2.40;;
15748;SDS011;7976;52.526;13.326;2023-02-24T14:08:53;7.85;;;2.60;;
15748;SDS011;7976;52.526;13.326;2023-02-24T14:11:24;7.68;;;2.10;;
15748;SDS011;7976;52.526;13.326;2023-02-24T14:13:58;7.35;;;2.08;;
15748;SDS011;7976;52.526;13.326;2023-02-24T14:16:26;6.68;;;2.13;;
15748;SDS011;7976;52.526;13.326;2023-02-24T14:19:02;14.52;;;2.70;;
15748;SDS011;7976;52.526;13.326;2023-02-24T14:21:37;7.55;;;2.10;;
15748;SDS011;7976;52.526;13.326;2023-02-24T14:24:13;8.05;;;2.10;;
15748;SDS011;7976;52.526;13.326;2023-02-24T14:26:41;7.00;;;2.10;;
15748;SDS011;7976;52.526;13.326;2023-02-24T14:29:12;9.70;;;2.22;;
15748;SDS011;7976;52.526;13.326;2023-02-24T14:31:46;5.55;;;1.83;;
15748;SDS011;7976;52.526;13.326;2023-02-24T14:34:16;10.70;;;2.40;;
15748;SDS011;7976;52.526;13.326;2023-02-24T14:36:47;9.43;;;2.58;;
15748;SDS011;7976;52.526;13.326;2023-02-24T14:39:17;11.00;;;3.13;;
15748;SDS011;7976;52.526;13.326;2023-02-24T14:41:48;8.90;;;2.50;;
15748;SDS011;7976;52.526;13.326;2023-02-24T14:44:19;8.38;;;2.40;;
15748;SDS011;7976;52.526;13.326;2023-02-24T14:46:50;7.78;;;1.95;;
15748;SDS011;7976;52.526;13.326;2023-02-24T14:49:22;5.95;;;1.88;;
15748;SDS011;7976;52.526;13.326;2023-02-24T14:51:54;6.70;;;2.17;;
15748;SDS011;7976;52.526;13.326;2023-02-24T14:54:31;6.25;;;1.80;;
15748;SDS011;7976;52.526;13.326;2023-02-24T14:57:10;9.00;;;2.40;;
15748;SDS011;7976;52.526;13.326;2023-02-24T14:59:44;8.38;;;2.00;;
15748;SDS011;7976;52.526;13.326;2023-02-24T15:02:16;6.22;;;1.95;;
15748;SDS011;7976;52.526;13.326;2023-02-24T15:04:51;7.25;;;2.00;;
15748;SDS011;7976;52.526;13.326;2023-02-24T15:07:22;5.78;;;2.05;;
15748;SDS011;7976;52.526;13.326;2023-02-24T15:09:53;8.05;;;2.20;;
15748;SDS011;7976;52.526;13.326;2023-02-24T15:12:22;4.82;;;1.90;;
15748;SDS011;7976;52.526;13.326;2023-02-24T15:14:56;5.68;;;2.00;;
15748;SDS011;7976;52.526;13.326;2023-02-24T15:17:29;5.57;;;1.80;;
15748;SDS011;7976;52.526;13.326;2023-02-24T15:19:56;6.13;;;2.05;;
15748;SDS011;7976;52.526;13.326;2023-02-24T15:22:24;5.53;;;1.90;;
15748;SDS011;7976;52.526;13.326;2023-02-24T15:24:54;5.82;;;1.92;;
15748;SDS011;7976;52.526;13.326;2023-02-24T15:27:47;4.72;;;1.63;;
15748;SDS011;7976;52.526;13.326;2023-02-24T15:30:25;7.63;;;1.77;;
15748;SDS011;7976;52.526;13.326;2023-02-24T15:32:59;5.88;;;1.83;;
15748;SDS011;7976;52.526;13.326;2023-02-24T15:35:29;3.80;;;1.58;;
15748;SDS011;7976;52.526;13.326;2023-02-24T15:37:58;6.93;;;1.90;;